sensor_id;sensor_type;location;lat;lon;timestamp;P1;durP1;ratioP1;P2;durP2;ratioP2
66402;SDS011;53212;52.112;5.144;2022-09-03T00:00:07;2.30;;;1.30;;
66402;SDS011;53212;52.112;5.144;2022-09-03T00:02:57;2.60;;;1.50;;
66402;SDS011;53212;52.112;5.144;2022-09-03T00:05:47;1.80;;;1.30;;
66402;SDS011;53212;52.112;5.144;2022-09-03T00:08:36;1.40;;;1.30;;
66402;SDS011;53212;52.112;5.144;2022-09-03T00:13:59;2.30;;;1.30;;
66402;SDS011;53212;52.112;5.144;2022-09-03T00:16:43;2.90;;;1.40;;
66402;SDS011;53212;52.112;5.144;2022-09-03T00:19:16;1.50;;;1.20;;
66402;SDS011;53212;52.112;5.144;2022-09-03T00:22:15;2.70;;;1.20;;
66402;SDS011;53212;52.112;5.144;2022-09-03T00:28:38;3.50;;;1.20;;
66402;SDS011;53212;52.112;5.144;2022-09-03T00:31:55;1.80;;;1.20;;
66402;SDS011;53212;52.112;5.144;2022-09-03T00:36:38;3.10;;;1.30;;
66402;SDS011;53212;52.112;5.144;2022-09-03T00:39:16;1.50;;;1.30;;
66402;SDS011;53212;52.112;5.144;2022-09-03T00:41:53;1.70;;;1.30;;
66402;SDS011;53212;52.112;5.144;2022-09-03T00:50:18;1.50;;;1.10;;
66402;SDS011;53212;52.112;5.144;2022-09-03T01:01:47;2.40;;;1.20;;
66402;SDS011;53212;52.112;5.144;2022-09-03T01:11:23;2.50;;;1.10;;
66402;SDS011;53212;52.112;5.144;2022-09-03T01:20:03;1.90;;;1.10;;
66402;SDS011;53212;52.112;5.144;2022-09-03T01:31:55;3.60;;;1.70;;
66402;SDS011;53212;52.112;5.144;2022-09-03T01:34:40;2.70;;;1.40;;
66402;SDS011;53212;52.112;5.144;2022-09-03T01:43:10;2.80;;;1.30;;
66402;SDS011;53212;52.112;5.144;2022-09-03T01:51:22;2.20;;;1.00;;
66402;SDS011;53212;52.112;5.144;2022-09-03T01:54:08;1.50;;;1.30;;
66402;SDS011;53212;52.112;5.144;2022-09-03T02:00:07;2.00;;;1.20;;
66402;SDS011;53212;52.112;5.144;2022-09-03T02:02:37;4.20;;;1.40;;
66402;SDS011;53212;52.112;5.144;2022-09-03T02:05:18;4.30;;;1.40;;
66402;SDS011;53212;52.112;5.144;2022-09-03T02:08:03;2.50;;;1.40;;
66402;SDS011;53212;52.112;5.144;2022-09-03T02:10:40;2.80;;;1.30;;
66402;SDS011;53212;52.112;5.144;2022-09-03T02:13:15;2.30;;;1.20;;
66402;SDS011;53212;52.112;5.144;2022-09-03T02:16:02;4.10;;;1.30;;
66402;SDS011;53212;52.112;5.144;2022-09-03T02:18:37;3.40;;;1.40;;
66402;SDS011;53212;52.112;5.144;2022-09-03T02:23:45;3.20;;;1.30;;
66402;SDS011;53212;52.112;5.144;2022-09-03T02:26:13;3.10;;;1.40;;
66402;SDS011;53212;52.112;5.144;2022-09-03T02:28:42;7.30;;;1.40;;
66402;SDS011;53212;52.112;5.144;2022-09-03T02:31:08;2.30;;;1.40;;
66402;SDS011;53212;52.112;5.144;2022-09-03T02:33:37;3.60;;;1.30;;
66402;SDS011;53212;52.112;5.144;2022-09-03T02:36:07;4.50;;;1.20;;
66402;SDS011;53212;52.112;5.144;2022-09-03T02:38:35;3.00;;;1.40;;
66402;SDS011;53212;52.112;5.144;2022-09-03T02:41:05;2.70;;;1.40;;
66402;SDS011;53212;52.112;5.144;2022-09-03T02:43:38;5.20;;;1.60;;
66402;SDS011;53212;52.112;5.144;2022-09-03T02:46:33;2.40;;;1.20;;
66402;SDS011;53212;52.112;5.144;2022-09-03T02:49:21;3.70;;;1.30;;
66402;SDS011;53212;52.112;5.144;2022-09-03T02:51:47;2.80;;;1.50;;
66402;SDS011;53212;52.112;5.144;2022-09-03T02:54:13;3.10;;;1.50;;
66402;SDS011;53212;52.112;5.144;2022-09-03T02:56:39;2.30;;;1.50;;
66402;SDS011;53212;52.112;5.144;2022-09-03T02:59:08;2.90;;;1.40;;
66402;SDS011;53212;52.112;5.144;2022-09-03T03:01:36;2.70;;;1.50;;
66402;SDS011;53212;52.112;5.144;2022-09-03T03:04:02;1.70;;;1.30;;
66402;SDS011;53212;52.112;5.144;2022-09-03T03:06:28;2.80;;;1.50;;
66402;SDS011;53212;52.112;5.144;2022-09-03T03:08:54;2.50;;;1.30;;
66402;SDS011;53212;52.112;5.144;2022-09-03T03:11:20;5.90;;;1.30;;
66402;SDS011;53212;52.112;5.144;2022-09-03T03:13:50;3.10;;;1.70;;
66402;SDS011;53212;52.112;5.144;2022-09-03T03:16:19;2.20;;;1.20;;
66402;SDS011;53212;52.112;5.144;2022-09-03T03:18:45;2.60;;;1.50;;
66402;SDS011;53212;52.112;5.144;2022-09-03T03:21:12;1.90;;;1.30;;
66402;SDS011;53212;52.112;5.144;2022-09-03T03:23:40;1.90;;;1.40;;
66402;SDS011;53212;52.112;5.144;2022-09-03T03:26:12;2.20;;;1.40;;
66402;SDS011;53212;52.112;5.144;2022-09-03T03:28:40;1.90;;;1.40;;
66402;SDS011;53212;52.112;5.144;2022-09-03T03:31:11;3.80;;;1.50;;
66402;SDS011;53212;52.112;5.144;2022-09-03T03:33:39;4.30;;;1.50;;
66402;SDS011;53212;52.112;5.144;2022-09-03T03:36:10;2.30;;;1.30;;
66402;SDS011;53212;52.112;5.144;2022-09-03T03:38:38;2.80;;;1.40;;
66402;SDS011;53212;52.112;5.144;2022-09-03T03:41:15;2.00;;;1.20;;
66402;SDS011;53212;52.112;5.144;2022-09-03T03:43:46;3.60;;;1.40;;
66402;SDS011;53212;52.112;5.144;2022-09-03T03:46:13;1.80;;;1.40;;
66402;SDS011;53212;52.112;5.144;2022-09-03T03:48:39;1.50;;;1.40;;
66402;SDS011;53212;52.112;5.144;2022-09-03T03:51:07;1.50;;;1.20;;
66402;SDS011;53212;52.112;5.144;2022-09-03T03:53:42;3.30;;;1.40;;
66402;SDS011;53212;52.112;5.144;2022-09-03T03:56:13;1.70;;;1.60;;
66402;SDS011;53212;52.112;5.144;2022-09-03T03:58:42;1.90;;;1.70;;
66402;SDS011;53212;52.112;5.144;2022-09-03T04:01:30;2.50;;;1.50;;
66402;SDS011;53212;52.112;5.144;2022-09-03T04:03:58;2.10;;;1.40;;
66402;SDS011;53212;52.112;5.144;2022-09-03T04:06:24;1.80;;;1.20;;
66402;SDS011;53212;52.112;5.144;2022-09-03T04:08:51;2.70;;;1.50;;
66402;SDS011;53212;52.112;5.144;2022-09-03T04:11:30;2.30;;;1.40;;
66402;SDS011;53212;52.112;5.144;2022-09-03T04:21:25;2.10;;;1.40;;
66402;SDS011;53212;52.112;5.144;2022-09-03T04:23:55;1.60;;;1.50;;
66402;SDS011;53212;52.112;5.144;2022-09-03T04:26:25;2.20;;;1.40;;
66402;SDS011;53212;52.112;5.144;2022-09-03T04:28:56;1.70;;;1.50;;
66402;SDS011;53212;52.112;5.144;2022-09-03T04:31:23;2.00;;;1.40;;
66402;SDS011;53212;52.112;5.144;2022-09-03T04:33:50;1.40;;;1.30;;
66402;SDS011;53212;52.112;5.144;2022-09-03T04:36:18;2.10;;;1.30;;
66402;SDS011;53212;52.112;5.144;2022-09-03T04:39:02;2.70;;;1.50;;
66402;SDS011;53212;52.112;5.144;2022-09-03T04:41:31;3.10;;;1.40;;
66402;SDS011;53212;52.112;5.144;2022-09-03T04:43:58;1.50;;;1.40;;
66402;SDS011;53212;52.112;5.144;2022-09-03T04:46:26;1.90;;;1.20;;
66402;SDS011;53212;52.112;5.144;2022-09-03T04:48:58;2.30;;;1.60;;
66402;SDS011;53212;52.112;5.144;2022-09-03T04:51:25;1.50;;;1.20;;
66402;SDS011;53212;52.112;5.144;2022-09-03T04:53:57;3.00;;;1.40;;
66402;SDS011;53212;52.112;5.144;2022-09-03T04:56:30;2.50;;;1.70;;
66402;SDS011;53212;52.112;5.144;2022-09-03T04:59:00;3.10;;;1.50;;
66402;SDS011;53212;52.112;5.144;2022-09-03T05:01:47;1.80;;;1.30;;
66402;SDS011;53212;52.112;5.144;2022-09-03T05:04:13;2.30;;;1.30;;
66402;SDS011;53212;52.112;5.144;2022-09-03T05:06:39;2.00;;;1.50;;
66402;SDS011;53212;52.112;5.144;2022-09-03T05:09:08;1.90;;;1.50;;
66402;SDS011;53212;52.112;5.144;2022-09-03T05:11:35;1.60;;;1.30;;
66402;SDS011;53212;52.112;5.144;2022-09-03T05:14:02;2.40;;;1.30;;
66402;SDS011;53212;52.112;5.144;2022-09-03T05:16:31;3.70;;;1.50;;
66402;SDS011;53212;52.112;5.144;2022-09-03T05:18:58;3.40;;;1.50;;
66402;SDS011;53212;52.112;5.144;2022-09-03T05:21:25;2.80;;;1.50;;
66402;SDS011;53212;52.112;5.144;2022-09-03T05:23:52;1.70;;;1.60;;
66402;SDS011;53212;52.112;5.144;2022-09-03T05:30:03;3.50;;;2.10;;
66402;SDS011;53212;52.112;5.144;2022-09-03T05:32:32;2.60;;;1.80;;
66402;SDS011;53212;52.112;5.144;2022-09-03T05:34:58;5.50;;;2.30;;
66402;SDS011;53212;52.112;5.144;2022-09-03T05:37:24;7.50;;;2.20;;
66402;SDS011;53212;52.112;5.144;2022-09-03T05:39:50;3.00;;;1.60;;
66402;SDS011;53212;52.112;5.144;2022-09-03T05:42:18;3.30;;;2.30;;
66402;SDS011;53212;52.112;5.144;2022-09-03T05:44:47;3.10;;;1.90;;
66402;SDS011;53212;52.112;5.144;2022-09-03T05:51:18;4.40;;;1.90;;
66402;SDS011;53212;52.112;5.144;2022-09-03T05:53:48;2.30;;;1.80;;
66402;SDS011;53212;52.112;5.144;2022-09-03T05:56:18;4.60;;;1.80;;
66402;SDS011;53212;52.112;5.144;2022-09-03T05:58:52;2.70;;;1.70;;
66402;SDS011;53212;52.112;5.144;2022-09-03T06:01:23;2.70;;;1.50;;
66402;SDS011;53212;52.112;5.144;2022-09-03T06:07:33;4.30;;;1.50;;
66402;SDS011;53212;52.112;5.144;2022-09-03T06:09:59;1.60;;;1.50;;
66402;SDS011;53212;52.112;5.144;2022-09-03T06:12:28;2.60;;;1.70;;
66402;SDS011;53212;52.112;5.144;2022-09-03T06:14:54;1.50;;;1.40;;
66402;SDS011;53212;52.112;5.144;2022-09-03T06:17:20;3.20;;;1.60;;
66402;SDS011;53212;52.112;5.144;2022-09-03T06:19:46;2.10;;;1.70;;
66402;SDS011;53212;52.112;5.144;2022-09-03T06:22:12;2.70;;;1.30;;
66402;SDS011;53212;52.112;5.144;2022-09-03T06:24:38;1.80;;;1.50;;
66402;SDS011;53212;52.112;5.144;2022-09-03T06:30:45;3.00;;;1.30;;
66402;SDS011;53212;52.112;5.144;2022-09-03T06:33:12;2.00;;;1.70;;
66402;SDS011;53212;52.112;5.144;2022-09-03T06:35:38;1.70;;;1.60;;
66402;SDS011;53212;52.112;5.144;2022-09-03T06:38:06;3.10;;;1.30;;
66402;SDS011;53212;52.112;5.144;2022-09-03T06:40:31;2.00;;;1.40;;
66402;SDS011;53212;52.112;5.144;2022-09-03T06:42:57;3.00;;;1.40;;
66402;SDS011;53212;52.112;5.144;2022-09-03T06:45:29;2.40;;;1.40;;
66402;SDS011;53212;52.112;5.144;2022-09-03T06:48:17;1.70;;;1.30;;
66402;SDS011;53212;52.112;5.144;2022-09-03T06:50:43;2.70;;;1.20;;
66402;SDS011;53212;52.112;5.144;2022-09-03T06:53:18;1.40;;;1.20;;
66402;SDS011;53212;52.112;5.144;2022-09-03T06:56:04;1.60;;;1.50;;
66402;SDS011;53212;52.112;5.144;2022-09-03T06:58:42;1.30;;;1.20;;
66402;SDS011;53212;52.112;5.144;2022-09-03T07:01:12;2.30;;;1.30;;
66402;SDS011;53212;52.112;5.144;2022-09-03T07:03:41;5.60;;;1.20;;
66402;SDS011;53212;52.112;5.144;2022-09-03T07:09:49;1.80;;;1.30;;
66402;SDS011;53212;52.112;5.144;2022-09-03T07:12:16;7.50;;;2.10;;
66402;SDS011;53212;52.112;5.144;2022-09-03T07:14:46;3.50;;;1.20;;
66402;SDS011;53212;52.112;5.144;2022-09-03T07:20:34;1.80;;;1.20;;
66402;SDS011;53212;52.112;5.144;2022-09-03T07:23:00;2.10;;;1.20;;
66402;SDS011;53212;52.112;5.144;2022-09-03T07:25:26;1.20;;;1.10;;
66402;SDS011;53212;52.112;5.144;2022-09-03T07:28:00;1.90;;;1.00;;
66402;SDS011;53212;52.112;5.144;2022-09-03T07:30:30;2.00;;;1.10;;
66402;SDS011;53212;52.112;5.144;2022-09-03T07:32:56;2.20;;;1.20;;
66402;SDS011;53212;52.112;5.144;2022-09-03T07:35:26;2.90;;;1.20;;
66402;SDS011;53212;52.112;5.144;2022-09-03T07:37:53;4.10;;;1.30;;
66402;SDS011;53212;52.112;5.144;2022-09-03T07:40:19;2.90;;;1.10;;
66402;SDS011;53212;52.112;5.144;2022-09-03T07:42:47;2.40;;;1.50;;
66402;SDS011;53212;52.112;5.144;2022-09-03T07:45:13;1.90;;;1.20;;
66402;SDS011;53212;52.112;5.144;2022-09-03T07:47:46;3.20;;;1.00;;
66402;SDS011;53212;52.112;5.144;2022-09-03T07:50:15;2.40;;;1.00;;
66402;SDS011;53212;52.112;5.144;2022-09-03T07:52:44;1.90;;;1.10;;
66402;SDS011;53212;52.112;5.144;2022-09-03T07:55:12;4.60;;;1.30;;
66402;SDS011;53212;52.112;5.144;2022-09-03T07:57:38;3.60;;;1.50;;
66402;SDS011;53212;52.112;5.144;2022-09-03T08:00:10;1.40;;;1.10;;
66402;SDS011;53212;52.112;5.144;2022-09-03T08:02:37;5.40;;;1.20;;
66402;SDS011;53212;52.112;5.144;2022-09-03T08:05:14;1.80;;;1.10;;
66402;SDS011;53212;52.112;5.144;2022-09-03T08:07:46;1.90;;;1.20;;
66402;SDS011;53212;52.112;5.144;2022-09-03T08:10:18;0.80;;;0.80;;
66402;SDS011;53212;52.112;5.144;2022-09-03T08:12:45;0.80;;;0.80;;
66402;SDS011;53212;52.112;5.144;2022-09-03T08:15:30;1.80;;;1.00;;
66402;SDS011;53212;52.112;5.144;2022-09-03T08:18:24;3.50;;;1.10;;
66402;SDS011;53212;52.112;5.144;2022-09-03T08:20:51;1.50;;;1.10;;
66402;SDS011;53212;52.112;5.144;2022-09-03T08:26:42;2.40;;;1.20;;
66402;SDS011;53212;52.112;5.144;2022-09-03T08:29:11;3.50;;;1.10;;
66402;SDS011;53212;52.112;5.144;2022-09-03T08:31:37;2.40;;;1.40;;
66402;SDS011;53212;52.112;5.144;2022-09-03T08:34:05;1.70;;;1.00;;
66402;SDS011;53212;52.112;5.144;2022-09-03T08:36:37;2.70;;;1.00;;
66402;SDS011;53212;52.112;5.144;2022-09-03T08:39:06;1.50;;;0.90;;
66402;SDS011;53212;52.112;5.144;2022-09-03T08:41:47;4.20;;;1.40;;
66402;SDS011;53212;52.112;5.144;2022-09-03T08:44:50;2.70;;;1.20;;
66402;SDS011;53212;52.112;5.144;2022-09-03T08:47:49;0.90;;;0.80;;
66402;SDS011;53212;52.112;5.144;2022-09-03T08:53:21;1.50;;;0.90;;
66402;SDS011;53212;52.112;5.144;2022-09-03T08:55:59;4.80;;;1.20;;
66402;SDS011;53212;52.112;5.144;2022-09-03T08:58:38;2.00;;;1.20;;
66402;SDS011;53212;52.112;5.144;2022-09-03T09:04:14;3.30;;;1.30;;
66402;SDS011;53212;52.112;5.144;2022-09-03T09:07:03;4.00;;;1.10;;
66402;SDS011;53212;52.112;5.144;2022-09-03T09:09:45;2.20;;;1.20;;
66402;SDS011;53212;52.112;5.144;2022-09-03T09:21:22;1.60;;;1.10;;
66402;SDS011;53212;52.112;5.144;2022-09-03T09:23:56;2.10;;;1.10;;
66402;SDS011;53212;52.112;5.144;2022-09-03T09:26:27;1.40;;;1.10;;
66402;SDS011;53212;52.112;5.144;2022-09-03T09:29:05;4.20;;;1.10;;
66402;SDS011;53212;52.112;5.144;2022-09-03T09:31:35;1.80;;;1.00;;
66402;SDS011;53212;52.112;5.144;2022-09-03T09:34:06;4.90;;;1.00;;
66402;SDS011;53212;52.112;5.144;2022-09-03T09:36:50;2.80;;;1.20;;
66402;SDS011;53212;52.112;5.144;2022-09-03T09:39:17;2.70;;;1.00;;
66402;SDS011;53212;52.112;5.144;2022-09-03T09:41:59;2.10;;;1.10;;
66402;SDS011;53212;52.112;5.144;2022-09-03T09:44:38;3.60;;;1.20;;
66402;SDS011;53212;52.112;5.144;2022-09-03T09:49:58;4.20;;;1.20;;
66402;SDS011;53212;52.112;5.144;2022-09-03T09:52:26;5.10;;;1.20;;
66402;SDS011;53212;52.112;5.144;2022-09-03T09:55:10;1.90;;;1.10;;
66402;SDS011;53212;52.112;5.144;2022-09-03T09:57:44;1.90;;;0.90;;
66402;SDS011;53212;52.112;5.144;2022-09-03T10:00:15;2.10;;;1.10;;
66402;SDS011;53212;52.112;5.144;2022-09-03T10:02:52;1.30;;;0.90;;
66402;SDS011;53212;52.112;5.144;2022-09-03T10:07:56;1.70;;;1.10;;
66402;SDS011;53212;52.112;5.144;2022-09-03T10:10:24;1.50;;;1.20;;
66402;SDS011;53212;52.112;5.144;2022-09-03T10:16:28;1.20;;;0.90;;
66402;SDS011;53212;52.112;5.144;2022-09-03T10:20:03;1.00;;;0.90;;
66402;SDS011;53212;52.112;5.144;2022-09-03T10:23:02;1.40;;;1.00;;
66402;SDS011;53212;52.112;5.144;2022-09-03T10:25:54;1.40;;;0.90;;
66402;SDS011;53212;52.112;5.144;2022-09-03T10:32:06;2.20;;;1.00;;
66402;SDS011;53212;52.112;5.144;2022-09-03T10:34:54;2.10;;;1.00;;
66402;SDS011;53212;52.112;5.144;2022-09-03T10:41:30;3.10;;;0.90;;
66402;SDS011;53212;52.112;5.144;2022-09-03T10:55:34;2.50;;;1.00;;
66402;SDS011;53212;52.112;5.144;2022-09-03T11:04:24;1.10;;;1.00;;
66402;SDS011;53212;52.112;5.144;2022-09-03T11:07:07;2.40;;;1.20;;
66402;SDS011;53212;52.112;5.144;2022-09-03T11:10:24;0.90;;;0.80;;
66402;SDS011;53212;52.112;5.144;2022-09-03T11:15:55;3.10;;;1.00;;
66402;SDS011;53212;52.112;5.144;2022-09-03T11:19:19;2.50;;;1.00;;
66402;SDS011;53212;52.112;5.144;2022-09-03T11:21:57;2.60;;;1.10;;
66402;SDS011;53212;52.112;5.144;2022-09-03T11:54:58;1.40;;;0.70;;
66402;SDS011;53212;52.112;5.144;2022-09-03T11:57:47;3.50;;;1.10;;
66402;SDS011;53212;52.112;5.144;2022-09-03T12:00:15;1.20;;;1.10;;
66402;SDS011;53212;52.112;5.144;2022-09-03T12:22:28;1.40;;;1.00;;
66402;SDS011;53212;52.112;5.144;2022-09-03T12:25:08;4.50;;;1.20;;
66402;SDS011;53212;52.112;5.144;2022-09-03T12:27:41;3.10;;;1.30;;
66402;SDS011;53212;52.112;5.144;2022-09-03T12:30:18;5.00;;;1.10;;
66402;SDS011;53212;52.112;5.144;2022-09-03T12:32:48;2.50;;;1.20;;
66402;SDS011;53212;52.112;5.144;2022-09-03T12:35:22;2.20;;;1.20;;
66402;SDS011;53212;52.112;5.144;2022-09-03T12:37:54;0.90;;;0.80;;
66402;SDS011;53212;52.112;5.144;2022-09-03T12:44:01;1.20;;;1.00;;
66402;SDS011;53212;52.112;5.144;2022-09-03T12:49:04;1.30;;;0.80;;
66402;SDS011;53212;52.112;5.144;2022-09-03T12:51:40;4.50;;;1.00;;
66402;SDS011;53212;52.112;5.144;2022-09-03T12:54:12;1.20;;;1.10;;
66402;SDS011;53212;52.112;5.144;2022-09-03T13:00:29;1.10;;;1.00;;
66402;SDS011;53212;52.112;5.144;2022-09-03T13:10:23;1.60;;;1.00;;
66402;SDS011;53212;52.112;5.144;2022-09-03T13:33:55;1.20;;;1.10;;
66402;SDS011;53212;52.112;5.144;2022-09-03T13:43:40;0.80;;;0.80;;
66402;SDS011;53212;52.112;5.144;2022-09-03T13:46:53;2.30;;;1.30;;
66402;SDS011;53212;52.112;5.144;2022-09-03T13:50:19;4.00;;;1.10;;
66402;SDS011;53212;52.112;5.144;2022-09-03T14:16:25;1.20;;;1.10;;
66402;SDS011;53212;52.112;5.144;2022-09-03T14:19:01;2.10;;;1.60;;
66402;SDS011;53212;52.112;5.144;2022-09-03T14:21:43;2.60;;;1.20;;
66402;SDS011;53212;52.112;5.144;2022-09-03T14:24:14;2.60;;;1.30;;
66402;SDS011;53212;52.112;5.144;2022-09-03T14:26:51;2.40;;;1.20;;
66402;SDS011;53212;52.112;5.144;2022-09-03T14:29:51;1.10;;;1.00;;
66402;SDS011;53212;52.112;5.144;2022-09-03T14:38:10;2.50;;;1.10;;
66402;SDS011;53212;52.112;5.144;2022-09-03T14:44:53;1.90;;;1.10;;
66402;SDS011;53212;52.112;5.144;2022-09-03T15:00:06;2.10;;;1.40;;
66402;SDS011;53212;52.112;5.144;2022-09-03T15:05:41;3.10;;;1.60;;
66402;SDS011;53212;52.112;5.144;2022-09-03T15:15:43;3.10;;;1.10;;
66402;SDS011;53212;52.112;5.144;2022-09-03T15:30:13;3.50;;;1.30;;
66402;SDS011;53212;52.112;5.144;2022-09-03T15:33:20;2.00;;;1.20;;
66402;SDS011;53212;52.112;5.144;2022-09-03T15:36:02;3.10;;;1.40;;
66402;SDS011;53212;52.112;5.144;2022-09-03T15:39:05;2.90;;;1.30;;
66402;SDS011;53212;52.112;5.144;2022-09-03T15:44:24;1.30;;;1.20;;
66402;SDS011;53212;52.112;5.144;2022-09-03T15:46:59;2.00;;;1.20;;
66402;SDS011;53212;52.112;5.144;2022-09-03T15:49:51;2.20;;;1.20;;
66402;SDS011;53212;52.112;5.144;2022-09-03T15:55:37;2.40;;;1.20;;
66402;SDS011;53212;52.112;5.144;2022-09-03T15:58:28;2.40;;;1.40;;
66402;SDS011;53212;52.112;5.144;2022-09-03T16:15:41;2.30;;;1.30;;
66402;SDS011;53212;52.112;5.144;2022-09-03T16:18:36;1.30;;;1.20;;
66402;SDS011;53212;52.112;5.144;2022-09-03T16:27:54;1.30;;;1.20;;
66402;SDS011;53212;52.112;5.144;2022-09-03T16:44:55;2.90;;;1.10;;
66402;SDS011;53212;52.112;5.144;2022-09-03T16:48:23;3.90;;;1.50;;
66402;SDS011;53212;52.112;5.144;2022-09-03T16:51:16;1.60;;;1.40;;
66402;SDS011;53212;52.112;5.144;2022-09-03T17:00:07;1.90;;;1.70;;
66402;SDS011;53212;52.112;5.144;2022-09-03T17:06:26;2.50;;;2.00;;
66402;SDS011;53212;52.112;5.144;2022-09-03T17:09:41;2.60;;;2.00;;
66402;SDS011;53212;52.112;5.144;2022-09-03T17:19:34;3.60;;;1.50;;
66402;SDS011;53212;52.112;5.144;2022-09-03T17:22:41;2.20;;;1.40;;
66402;SDS011;53212;52.112;5.144;2022-09-03T17:25:33;2.50;;;1.40;;
66402;SDS011;53212;52.112;5.144;2022-09-03T17:46:07;3.50;;;1.50;;
66402;SDS011;53212;52.112;5.144;2022-09-03T17:48:51;1.80;;;1.40;;
66402;SDS011;53212;52.112;5.144;2022-09-03T17:51:41;5.50;;;1.60;;
66402;SDS011;53212;52.112;5.144;2022-09-03T18:00:08;3.90;;;1.50;;
66402;SDS011;53212;52.112;5.144;2022-09-03T18:19:49;4.90;;;2.10;;
66402;SDS011;53212;52.112;5.144;2022-09-03T18:26:42;4.80;;;2.00;;
66402;SDS011;53212;52.112;5.144;2022-09-03T18:33:31;3.00;;;2.70;;
66402;SDS011;53212;52.112;5.144;2022-09-03T18:37:00;2.70;;;2.10;;
66402;SDS011;53212;52.112;5.144;2022-09-03T19:14:05;8.20;;;3.50;;
66402;SDS011;53212;52.112;5.144;2022-09-03T19:32:05;9.90;;;2.70;;
66402;SDS011;53212;52.112;5.144;2022-09-03T19:35:08;4.40;;;2.40;;
66402;SDS011;53212;52.112;5.144;2022-09-03T19:41:33;5.20;;;3.30;;
66402;SDS011;53212;52.112;5.144;2022-09-03T19:45:11;5.20;;;2.90;;
66402;SDS011;53212;52.112;5.144;2022-09-03T19:52:11;7.60;;;3.90;;
66402;SDS011;53212;52.112;5.144;2022-09-03T19:59:08;4.60;;;3.20;;
66402;SDS011;53212;52.112;5.144;2022-09-03T20:02:15;6.40;;;3.80;;
66402;SDS011;53212;52.112;5.144;2022-09-03T20:05:09;3.80;;;3.20;;
66402;SDS011;53212;52.112;5.144;2022-09-03T20:08:31;7.60;;;3.90;;
66402;SDS011;53212;52.112;5.144;2022-09-03T20:11:30;7.40;;;4.50;;
66402;SDS011;53212;52.112;5.144;2022-09-03T20:14:01;7.30;;;4.50;;
66402;SDS011;53212;52.112;5.144;2022-09-03T20:20:38;6.70;;;3.70;;
66402;SDS011;53212;52.112;5.144;2022-09-03T20:54:04;11.20;;;5.30;;
66402;SDS011;53212;52.112;5.144;2022-09-03T20:57:15;7.10;;;5.30;;
66402;SDS011;53212;52.112;5.144;2022-09-03T21:00:38;7.40;;;5.20;;
66402;SDS011;53212;52.112;5.144;2022-09-03T21:06:15;10.80;;;5.50;;
66402;SDS011;53212;52.112;5.144;2022-09-03T21:24:43;12.60;;;5.70;;
66402;SDS011;53212;52.112;5.144;2022-09-03T21:27:19;13.30;;;5.80;;
66402;SDS011;53212;52.112;5.144;2022-09-03T21:32:44;7.80;;;5.90;;
66402;SDS011;53212;52.112;5.144;2022-09-03T21:35:33;6.80;;;5.40;;
66402;SDS011;53212;52.112;5.144;2022-09-03T21:38:08;9.80;;;5.40;;
66402;SDS011;53212;52.112;5.144;2022-09-03T21:43:51;9.00;;;4.70;;
66402;SDS011;53212;52.112;5.144;2022-09-03T21:46:26;7.10;;;5.00;;
66402;SDS011;53212;52.112;5.144;2022-09-03T21:49:00;5.80;;;4.90;;
66402;SDS011;53212;52.112;5.144;2022-09-03T21:51:36;4.80;;;4.00;;
66402;SDS011;53212;52.112;5.144;2022-09-03T21:54:12;5.60;;;4.60;;
66402;SDS011;53212;52.112;5.144;2022-09-03T22:02:33;4.80;;;4.30;;
66402;SDS011;53212;52.112;5.144;2022-09-03T22:04:59;5.80;;;4.50;;
66402;SDS011;53212;52.112;5.144;2022-09-03T22:15:28;5.30;;;4.20;;
66402;SDS011;53212;52.112;5.144;2022-09-03T22:17:57;6.30;;;4.60;;
66402;SDS011;53212;52.112;5.144;2022-09-03T22:20:29;5.90;;;4.40;;
66402;SDS011;53212;52.112;5.144;2022-09-03T22:23:04;8.60;;;4.70;;
66402;SDS011;53212;52.112;5.144;2022-09-03T22:26:02;6.40;;;4.60;;
66402;SDS011;53212;52.112;5.144;2022-09-03T22:29:02;5.30;;;4.60;;
66402;SDS011;53212;52.112;5.144;2022-09-03T22:31:45;7.60;;;4.70;;
66402;SDS011;53212;52.112;5.144;2022-09-03T22:34:48;8.20;;;5.00;;
66402;SDS011;53212;52.112;5.144;2022-09-03T22:37:19;7.30;;;5.10;;
66402;SDS011;53212;52.112;5.144;2022-09-03T22:39:55;7.50;;;4.90;;
66402;SDS011;53212;52.112;5.144;2022-09-03T22:46:18;5.40;;;4.80;;
66402;SDS011;53212;52.112;5.144;2022-09-03T22:49:13;5.70;;;5.00;;
66402;SDS011;53212;52.112;5.144;2022-09-03T22:55:10;5.40;;;4.50;;
66402;SDS011;53212;52.112;5.144;2022-09-03T22:58:02;8.30;;;5.00;;
66402;SDS011;53212;52.112;5.144;2022-09-03T23:00:39;6.90;;;5.10;;
66402;SDS011;53212;52.112;5.144;2022-09-03T23:03:20;6.70;;;4.90;;
66402;SDS011;53212;52.112;5.144;2022-09-03T23:05:55;7.40;;;5.20;;
66402;SDS011;53212;52.112;5.144;2022-09-03T23:08:37;5.50;;;4.90;;
66402;SDS011;53212;52.112;5.144;2022-09-03T23:11:18;5.90;;;5.30;;
66402;SDS011;53212;52.112;5.144;2022-09-03T23:13:49;7.30;;;5.90;;
66402;SDS011;53212;52.112;5.144;2022-09-03T23:16:48;9.00;;;5.00;;
66402;SDS011;53212;52.112;5.144;2022-09-03T23:19:33;6.60;;;5.60;;
66402;SDS011;53212;52.112;5.144;2022-09-03T23:22:19;7.70;;;5.40;;
66402;SDS011;53212;52.112;5.144;2022-09-03T23:27:44;5.10;;;4.60;;
66402;SDS011;53212;52.112;5.144;2022-09-03T23:30:15;7.30;;;5.50;;
66402;SDS011;53212;52.112;5.144;2022-09-03T23:32:43;8.80;;;5.10;;
66402;SDS011;53212;52.112;5.144;2022-09-03T23:35:13;5.30;;;4.80;;
66402;SDS011;53212;52.112;5.144;2022-09-03T23:38:05;7.30;;;5.20;;
66402;SDS011;53212;52.112;5.144;2022-09-03T23:40:48;6.40;;;4.70;;
66402;SDS011;53212;52.112;5.144;2022-09-03T23:47:02;5.90;;;5.20;;
66402;SDS011;53212;52.112;5.144;2022-09-03T23:58:17;6.20;;;5.00;;
